sensor_id;sensor_type;location;lat;lon;timestamp;P1;durP1;ratioP1;P2;durP2;ratioP2
10537;SDS011;5317;49.048;8.468;2023-04-19T00:01:14;9.70;;;8.10;;
10537;SDS011;5317;49.048;8.468;2023-04-19T00:03:42;10.57;;;8.23;;
10537;SDS011;5317;49.048;8.468;2023-04-19T00:06:09;8.77;;;7.70;;
10537;SDS011;5317;49.048;8.468;2023-04-19T00:08:39;10.23;;;8.57;;
10537;SDS011;5317;49.048;8.468;2023-04-19T00:11:06;9.93;;;8.13;;
10537;SDS011;5317;49.048;8.468;2023-04-19T00:13:33;10.27;;;8.47;;
10537;SDS011;5317;49.048;8.468;2023-04-19T00:15:59;10.07;;;8.53;;
10537;SDS011;5317;49.048;8.468;2023-04-19T00:18:27;9.60;;;7.67;;
10537;SDS011;5317;49.048;8.468;2023-04-19T00:20:55;10.50;;;8.97;;
10537;SDS011;5317;49.048;8.468;2023-04-19T00:23:22;10.47;;;8.47;;
10537;SDS011;5317;49.048;8.468;2023-04-19T00:25:49;10.33;;;9.20;;
10537;SDS011;5317;49.048;8.468;2023-04-19T00:28:16;8.83;;;7.50;;
10537;SDS011;5317;49.048;8.468;2023-04-19T00:30:43;9.47;;;8.47;;
10537;SDS011;5317;49.048;8.468;2023-04-19T00:33:10;11.03;;;8.70;;
10537;SDS011;5317;49.048;8.468;2023-04-19T00:35:37;9.77;;;8.63;;
10537;SDS011;5317;49.048;8.468;2023-04-19T00:38:07;9.73;;;8.30;;
10537;SDS011;5317;49.048;8.468;2023-04-19T00:40:34;9.77;;;8.40;;
10537;SDS011;5317;49.048;8.468;2023-04-19T00:43:01;10.27;;;8.67;;
10537;SDS011;5317;49.048;8.468;2023-04-19T00:45:28;9.30;;;8.30;;
10537;SDS011;5317;49.048;8.468;2023-04-19T00:47:57;10.53;;;9.07;;
10537;SDS011;5317;49.048;8.468;2023-04-19T00:50:25;11.50;;;8.97;;
10537;SDS011;5317;49.048;8.468;2023-04-19T00:52:52;9.83;;;8.40;;
10537;SDS011;5317;49.048;8.468;2023-04-19T00:55:21;9.73;;;8.57;;
10537;SDS011;5317;49.048;8.468;2023-04-19T00:57:49;10.37;;;8.67;;
10537;SDS011;5317;49.048;8.468;2023-04-19T01:00:17;8.87;;;7.50;;
10537;SDS011;5317;49.048;8.468;2023-04-19T01:02:44;11.50;;;9.30;;
10537;SDS011;5317;49.048;8.468;2023-04-19T01:05:11;10.03;;;8.10;;
10537;SDS011;5317;49.048;8.468;2023-04-19T01:07:38;10.33;;;9.23;;
10537;SDS011;5317;49.048;8.468;2023-04-19T01:10:05;10.00;;;8.60;;
10537;SDS011;5317;49.048;8.468;2023-04-19T01:12:34;10.87;;;8.83;;
10537;SDS011;5317;49.048;8.468;2023-04-19T01:15:01;10.80;;;8.83;;
10537;SDS011;5317;49.048;8.468;2023-04-19T01:17:28;9.37;;;8.07;;
10537;SDS011;5317;49.048;8.468;2023-04-19T01:19:58;10.97;;;9.40;;
10537;SDS011;5317;49.048;8.468;2023-04-19T01:22:27;10.03;;;8.50;;
10537;SDS011;5317;49.048;8.468;2023-04-19T01:24:56;10.93;;;9.03;;
10537;SDS011;5317;49.048;8.468;2023-04-19T01:27:23;11.20;;;8.70;;
10537;SDS011;5317;49.048;8.468;2023-04-19T01:29:50;11.87;;;8.93;;
10537;SDS011;5317;49.048;8.468;2023-04-19T01:32:18;9.30;;;8.33;;
10537;SDS011;5317;49.048;8.468;2023-04-19T01:34:45;10.40;;;8.43;;
10537;SDS011;5317;49.048;8.468;2023-04-19T01:37:13;11.23;;;9.17;;
10537;SDS011;5317;49.048;8.468;2023-04-19T01:39:41;11.93;;;9.87;;
10537;SDS011;5317;49.048;8.468;2023-04-19T01:42:08;13.13;;;9.77;;
10537;SDS011;5317;49.048;8.468;2023-04-19T01:44:35;12.43;;;9.93;;
10537;SDS011;5317;49.048;8.468;2023-04-19T01:47:02;10.53;;;8.70;;
10537;SDS011;5317;49.048;8.468;2023-04-19T01:49:29;11.10;;;9.23;;
10537;SDS011;5317;49.048;8.468;2023-04-19T01:51:56;9.90;;;8.63;;
10537;SDS011;5317;49.048;8.468;2023-04-19T01:54:22;17.17;;;9.53;;
10537;SDS011;5317;49.048;8.468;2023-04-19T01:56:51;10.27;;;9.17;;
10537;SDS011;5317;49.048;8.468;2023-04-19T01:59:19;11.07;;;9.17;;
10537;SDS011;5317;49.048;8.468;2023-04-19T02:01:46;9.83;;;8.80;;
10537;SDS011;5317;49.048;8.468;2023-04-19T02:04:12;10.43;;;8.90;;
10537;SDS011;5317;49.048;8.468;2023-04-19T02:06:39;11.60;;;9.90;;
10537;SDS011;5317;49.048;8.468;2023-04-19T02:09:06;10.33;;;8.70;;
10537;SDS011;5317;49.048;8.468;2023-04-19T02:11:34;11.90;;;9.33;;
10537;SDS011;5317;49.048;8.468;2023-04-19T02:14:04;10.27;;;8.90;;
10537;SDS011;5317;49.048;8.468;2023-04-19T02:16:30;11.17;;;9.10;;
10537;SDS011;5317;49.048;8.468;2023-04-19T02:18:57;12.27;;;9.07;;
10537;SDS011;5317;49.048;8.468;2023-04-19T02:21:25;10.40;;;8.33;;
10537;SDS011;5317;49.048;8.468;2023-04-19T02:23:52;10.67;;;8.90;;
10537;SDS011;5317;49.048;8.468;2023-04-19T02:26:19;8.57;;;7.63;;
10537;SDS011;5317;49.048;8.468;2023-04-19T02:28:49;11.70;;;9.57;;
10537;SDS011;5317;49.048;8.468;2023-04-19T02:31:17;10.53;;;8.67;;
10537;SDS011;5317;49.048;8.468;2023-04-19T02:33:44;10.43;;;8.50;;
10537;SDS011;5317;49.048;8.468;2023-04-19T02:36:11;10.90;;;8.77;;
10537;SDS011;5317;49.048;8.468;2023-04-19T02:38:39;10.57;;;8.50;;
10537;SDS011;5317;49.048;8.468;2023-04-19T02:41:05;9.80;;;8.80;;
10537;SDS011;5317;49.048;8.468;2023-04-19T02:43:32;10.70;;;8.57;;
10537;SDS011;5317;49.048;8.468;2023-04-19T02:45:59;9.50;;;8.50;;
10537;SDS011;5317;49.048;8.468;2023-04-19T02:48:28;10.03;;;8.90;;
10537;SDS011;5317;49.048;8.468;2023-04-19T02:50:55;10.47;;;8.67;;
10537;SDS011;5317;49.048;8.468;2023-04-19T02:53:22;9.83;;;8.50;;
10537;SDS011;5317;49.048;8.468;2023-04-19T02:55:49;11.53;;;9.17;;
10537;SDS011;5317;49.048;8.468;2023-04-19T02:58:16;9.57;;;8.27;;
10537;SDS011;5317;49.048;8.468;2023-04-19T03:00:43;11.30;;;8.47;;
10537;SDS011;5317;49.048;8.468;2023-04-19T03:03:10;10.73;;;8.63;;
10537;SDS011;5317;49.048;8.468;2023-04-19T03:05:38;9.47;;;8.33;;
10537;SDS011;5317;49.048;8.468;2023-04-19T03:08:05;10.60;;;8.93;;
10537;SDS011;5317;49.048;8.468;2023-04-19T03:10:32;10.60;;;9.03;;
10537;SDS011;5317;49.048;8.468;2023-04-19T03:12:59;10.27;;;8.60;;
10537;SDS011;5317;49.048;8.468;2023-04-19T03:15:25;10.73;;;8.63;;
10537;SDS011;5317;49.048;8.468;2023-04-19T03:17:54;9.07;;;7.80;;
10537;SDS011;5317;49.048;8.468;2023-04-19T03:20:22;10.13;;;8.20;;
10537;SDS011;5317;49.048;8.468;2023-04-19T03:22:51;10.20;;;8.37;;
10537;SDS011;5317;49.048;8.468;2023-04-19T03:25:18;9.20;;;7.90;;
10537;SDS011;5317;49.048;8.468;2023-04-19T03:27:46;9.60;;;8.07;;
10537;SDS011;5317;49.048;8.468;2023-04-19T03:30:15;9.37;;;7.90;;
10537;SDS011;5317;49.048;8.468;2023-04-19T03:32:42;10.87;;;7.97;;
10537;SDS011;5317;49.048;8.468;2023-04-19T03:35:09;9.93;;;8.53;;
10537;SDS011;5317;49.048;8.468;2023-04-19T03:37:35;8.30;;;7.40;;
10537;SDS011;5317;49.048;8.468;2023-04-19T03:40:04;9.97;;;8.37;;
10537;SDS011;5317;49.048;8.468;2023-04-19T03:42:32;9.83;;;7.90;;
10537;SDS011;5317;49.048;8.468;2023-04-19T03:44:59;7.83;;;7.03;;
10537;SDS011;5317;49.048;8.468;2023-04-19T03:47:26;10.47;;;8.10;;
10537;SDS011;5317;49.048;8.468;2023-04-19T03:49:54;8.47;;;7.67;;
10537;SDS011;5317;49.048;8.468;2023-04-19T03:52:21;7.90;;;7.03;;
10537;SDS011;5317;49.048;8.468;2023-04-19T03:54:49;8.73;;;7.60;;
10537;SDS011;5317;49.048;8.468;2023-04-19T03:57:19;8.77;;;7.57;;
10537;SDS011;5317;49.048;8.468;2023-04-19T03:59:46;7.57;;;6.77;;
10537;SDS011;5317;49.048;8.468;2023-04-19T04:02:13;9.00;;;7.77;;
10537;SDS011;5317;49.048;8.468;2023-04-19T04:04:39;8.00;;;7.20;;
10537;SDS011;5317;49.048;8.468;2023-04-19T04:07:06;8.30;;;7.17;;
10537;SDS011;5317;49.048;8.468;2023-04-19T04:09:34;8.50;;;6.93;;
10537;SDS011;5317;49.048;8.468;2023-04-19T04:12:02;7.83;;;6.90;;
10537;SDS011;5317;49.048;8.468;2023-04-19T04:14:30;7.93;;;7.13;;
10537;SDS011;5317;49.048;8.468;2023-04-19T04:16:57;7.50;;;6.70;;
10537;SDS011;5317;49.048;8.468;2023-04-19T04:19:25;8.77;;;7.23;;
10537;SDS011;5317;49.048;8.468;2023-04-19T04:21:51;10.23;;;7.70;;
10537;SDS011;5317;49.048;8.468;2023-04-19T04:24:19;8.17;;;7.37;;
10537;SDS011;5317;49.048;8.468;2023-04-19T04:26:46;10.03;;;6.93;;
10537;SDS011;5317;49.048;8.468;2023-04-19T04:29:13;8.40;;;6.50;;
10537;SDS011;5317;49.048;8.468;2023-04-19T04:31:42;7.97;;;7.03;;
10537;SDS011;5317;49.048;8.468;2023-04-19T04:34:09;7.57;;;6.77;;
10537;SDS011;5317;49.048;8.468;2023-04-19T04:36:36;9.10;;;7.63;;
10537;SDS011;5317;49.048;8.468;2023-04-19T04:39:03;8.23;;;7.03;;
10537;SDS011;5317;49.048;8.468;2023-04-19T04:41:30;7.47;;;6.60;;
10537;SDS011;5317;49.048;8.468;2023-04-19T04:43:57;7.77;;;6.73;;
10537;SDS011;5317;49.048;8.468;2023-04-19T04:46:25;7.67;;;6.50;;
10537;SDS011;5317;49.048;8.468;2023-04-19T04:48:53;7.70;;;6.77;;
10537;SDS011;5317;49.048;8.468;2023-04-19T04:51:21;7.97;;;7.17;;
10537;SDS011;5317;49.048;8.468;2023-04-19T04:53:48;7.97;;;7.10;;
10537;SDS011;5317;49.048;8.468;2023-04-19T04:56:14;8.00;;;6.73;;
10537;SDS011;5317;49.048;8.468;2023-04-19T04:58:41;8.60;;;7.17;;
10537;SDS011;5317;49.048;8.468;2023-04-19T05:01:08;7.93;;;7.13;;
10537;SDS011;5317;49.048;8.468;2023-04-19T05:03:36;7.60;;;6.90;;
10537;SDS011;5317;49.048;8.468;2023-04-19T05:06:05;6.90;;;6.20;;
10537;SDS011;5317;49.048;8.468;2023-04-19T05:08:32;8.90;;;7.10;;
10537;SDS011;5317;49.048;8.468;2023-04-19T05:10:59;8.67;;;7.37;;
10537;SDS011;5317;49.048;8.468;2023-04-19T05:13:26;7.80;;;7.00;;
10537;SDS011;5317;49.048;8.468;2023-04-19T05:15:53;8.63;;;7.03;;
10537;SDS011;5317;49.048;8.468;2023-04-19T05:18:20;9.03;;;7.17;;
10537;SDS011;5317;49.048;8.468;2023-04-19T05:20:46;8.67;;;7.33;;
10537;SDS011;5317;49.048;8.468;2023-04-19T05:23:15;7.50;;;6.80;;
10537;SDS011;5317;49.048;8.468;2023-04-19T05:25:42;8.47;;;7.13;;
10537;SDS011;5317;49.048;8.468;2023-04-19T05:28:09;7.57;;;6.77;;
10537;SDS011;5317;49.048;8.468;2023-04-19T05:30:36;7.33;;;6.47;;
10537;SDS011;5317;49.048;8.468;2023-04-19T05:33:03;8.17;;;7.37;;
10537;SDS011;5317;49.048;8.468;2023-04-19T05:35:30;8.50;;;7.13;;
10537;SDS011;5317;49.048;8.468;2023-04-19T05:37:57;9.97;;;7.13;;
10537;SDS011;5317;49.048;8.468;2023-04-19T05:40:25;8.63;;;7.40;;
10537;SDS011;5317;49.048;8.468;2023-04-19T05:42:53;8.07;;;7.20;;
10537;SDS011;5317;49.048;8.468;2023-04-19T05:45:20;7.67;;;6.77;;
10537;SDS011;5317;49.048;8.468;2023-04-19T05:47:47;7.33;;;6.60;;
10537;SDS011;5317;49.048;8.468;2023-04-19T05:50:14;6.77;;;6.07;;
10537;SDS011;5317;49.048;8.468;2023-04-19T05:52:42;7.10;;;6.40;;
10537;SDS011;5317;49.048;8.468;2023-04-19T05:55:08;9.20;;;7.07;;
10537;SDS011;5317;49.048;8.468;2023-04-19T05:57:37;9.17;;;7.20;;
10537;SDS011;5317;49.048;8.468;2023-04-19T06:00:04;7.33;;;6.63;;
10537;SDS011;5317;49.048;8.468;2023-04-19T06:02:33;7.40;;;6.67;;
10537;SDS011;5317;49.048;8.468;2023-04-19T06:05:00;9.97;;;7.07;;
10537;SDS011;5317;49.048;8.468;2023-04-19T06:07:28;7.43;;;6.63;;
10537;SDS011;5317;49.048;8.468;2023-04-19T06:09:55;7.13;;;6.40;;
10537;SDS011;5317;49.048;8.468;2023-04-19T06:12:22;7.00;;;6.30;;
10537;SDS011;5317;49.048;8.468;2023-04-19T06:14:50;7.53;;;6.80;;
10537;SDS011;5317;49.048;8.468;2023-04-19T06:17:17;8.83;;;7.03;;
10537;SDS011;5317;49.048;8.468;2023-04-19T06:19:48;8.03;;;7.23;;
10537;SDS011;5317;49.048;8.468;2023-04-19T06:22:15;7.80;;;6.80;;
10537;SDS011;5317;49.048;8.468;2023-04-19T06:24:43;8.23;;;7.00;;
10537;SDS011;5317;49.048;8.468;2023-04-19T06:27:11;8.90;;;7.10;;
10537;SDS011;5317;49.048;8.468;2023-04-19T06:29:38;7.73;;;6.93;;
10537;SDS011;5317;49.048;8.468;2023-04-19T06:32:06;8.47;;;7.03;;
10537;SDS011;5317;49.048;8.468;2023-04-19T06:34:34;7.77;;;6.97;;
10537;SDS011;5317;49.048;8.468;2023-04-19T06:37:01;10.07;;;6.67;;
10537;SDS011;5317;49.048;8.468;2023-04-19T06:39:28;7.80;;;7.00;;
10537;SDS011;5317;49.048;8.468;2023-04-19T06:41:55;7.43;;;6.73;;
10537;SDS011;5317;49.048;8.468;2023-04-19T06:44:22;8.00;;;7.20;;
10537;SDS011;5317;49.048;8.468;2023-04-19T06:46:49;9.57;;;6.27;;
10537;SDS011;5317;49.048;8.468;2023-04-19T06:49:17;7.63;;;6.83;;
10537;SDS011;5317;49.048;8.468;2023-04-19T06:51:44;8.77;;;6.93;;
10537;SDS011;5317;49.048;8.468;2023-04-19T06:54:11;8.90;;;6.77;;
10537;SDS011;5317;49.048;8.468;2023-04-19T06:56:39;7.67;;;6.87;;
10537;SDS011;5317;49.048;8.468;2023-04-19T06:59:09;7.73;;;6.47;;
10537;SDS011;5317;49.048;8.468;2023-04-19T07:01:37;8.33;;;6.03;;
10537;SDS011;5317;49.048;8.468;2023-04-19T07:04:04;7.60;;;6.77;;
10537;SDS011;5317;49.048;8.468;2023-04-19T07:06:33;8.07;;;7.13;;
10537;SDS011;5317;49.048;8.468;2023-04-19T07:09:01;8.10;;;7.30;;
10537;SDS011;5317;49.048;8.468;2023-04-19T07:11:30;7.20;;;6.50;;
10537;SDS011;5317;49.048;8.468;2023-04-19T07:13:58;7.93;;;7.00;;
10537;SDS011;5317;49.048;8.468;2023-04-19T07:16:26;6.97;;;6.27;;
10537;SDS011;5317;49.048;8.468;2023-04-19T07:18:53;7.70;;;6.43;;
10537;SDS011;5317;49.048;8.468;2023-04-19T07:21:21;8.17;;;6.73;;
10537;SDS011;5317;49.048;8.468;2023-04-19T07:23:52;7.40;;;6.67;;
10537;SDS011;5317;49.048;8.468;2023-04-19T07:26:18;7.60;;;6.90;;
10537;SDS011;5317;49.048;8.468;2023-04-19T07:28:45;7.50;;;6.40;;
10537;SDS011;5317;49.048;8.468;2023-04-19T07:31:15;7.87;;;7.07;;
10537;SDS011;5317;49.048;8.468;2023-04-19T07:33:43;7.37;;;6.50;;
10537;SDS011;5317;49.048;8.468;2023-04-19T07:36:10;8.63;;;7.10;;
10537;SDS011;5317;49.048;8.468;2023-04-19T07:38:38;7.27;;;6.20;;
10537;SDS011;5317;49.048;8.468;2023-04-19T07:41:06;7.73;;;6.67;;
10537;SDS011;5317;49.048;8.468;2023-04-19T07:43:34;8.27;;;7.40;;
10537;SDS011;5317;49.048;8.468;2023-04-19T07:46:02;9.90;;;6.77;;
10537;SDS011;5317;49.048;8.468;2023-04-19T07:48:34;7.40;;;6.70;;
10537;SDS011;5317;49.048;8.468;2023-04-19T07:51:06;7.83;;;6.93;;
10537;SDS011;5317;49.048;8.468;2023-04-19T07:53:34;6.97;;;6.27;;
10537;SDS011;5317;49.048;8.468;2023-04-19T07:56:01;7.33;;;6.57;;
10537;SDS011;5317;49.048;8.468;2023-04-19T07:58:29;7.27;;;6.50;;
10537;SDS011;5317;49.048;8.468;2023-04-19T08:00:56;7.70;;;6.90;;
10537;SDS011;5317;49.048;8.468;2023-04-19T08:03:23;7.30;;;6.43;;
10537;SDS011;5317;49.048;8.468;2023-04-19T08:05:51;6.97;;;6.27;;
10537;SDS011;5317;49.048;8.468;2023-04-19T08:08:18;7.30;;;6.20;;
10537;SDS011;5317;49.048;8.468;2023-04-19T08:10:45;8.57;;;7.00;;
10537;SDS011;5317;49.048;8.468;2023-04-19T08:13:13;8.53;;;6.67;;
10537;SDS011;5317;49.048;8.468;2023-04-19T08:15:42;8.50;;;7.60;;
10537;SDS011;5317;49.048;8.468;2023-04-19T08:18:09;9.03;;;6.70;;
10537;SDS011;5317;49.048;8.468;2023-04-19T08:20:36;8.23;;;6.80;;
10537;SDS011;5317;49.048;8.468;2023-04-19T08:23:03;7.30;;;6.60;;
10537;SDS011;5317;49.048;8.468;2023-04-19T08:25:31;7.63;;;6.93;;
10537;SDS011;5317;49.048;8.468;2023-04-19T08:28:01;8.53;;;7.63;;
10537;SDS011;5317;49.048;8.468;2023-04-19T08:30:27;8.13;;;7.03;;
10537;SDS011;5317;49.048;8.468;2023-04-19T08:32:56;9.23;;;7.17;;
10537;SDS011;5317;49.048;8.468;2023-04-19T08:35:23;9.60;;;6.53;;
10537;SDS011;5317;49.048;8.468;2023-04-19T08:37:50;7.43;;;6.67;;
10537;SDS011;5317;49.048;8.468;2023-04-19T08:40:17;7.13;;;6.43;;
10537;SDS011;5317;49.048;8.468;2023-04-19T08:42:44;7.47;;;6.70;;
10537;SDS011;5317;49.048;8.468;2023-04-19T08:45:10;7.57;;;6.83;;
10537;SDS011;5317;49.048;8.468;2023-04-19T08:47:39;7.63;;;6.93;;
10537;SDS011;5317;49.048;8.468;2023-04-19T08:50:08;7.07;;;6.10;;
10537;SDS011;5317;49.048;8.468;2023-04-19T08:52:36;7.60;;;6.73;;
10537;SDS011;5317;49.048;8.468;2023-04-19T08:55:03;8.20;;;7.10;;
10537;SDS011;5317;49.048;8.468;2023-04-19T08:57:32;10.33;;;6.27;;
10537;SDS011;5317;49.048;8.468;2023-04-19T09:00:00;7.57;;;6.43;;
10537;SDS011;5317;49.048;8.468;2023-04-19T09:02:43;7.50;;;6.60;;
10537;SDS011;5317;49.048;8.468;2023-04-19T09:05:12;6.87;;;5.37;;
10537;SDS011;5317;49.048;8.468;2023-04-19T09:07:39;6.10;;;5.50;;
10537;SDS011;5317;49.048;8.468;2023-04-19T09:10:08;7.23;;;6.03;;
10537;SDS011;5317;49.048;8.468;2023-04-19T09:12:37;7.93;;;7.10;;
10537;SDS011;5317;49.048;8.468;2023-04-19T09:15:05;7.53;;;6.40;;
10537;SDS011;5317;49.048;8.468;2023-04-19T09:17:34;7.57;;;6.40;;
10537;SDS011;5317;49.048;8.468;2023-04-19T09:20:01;7.50;;;6.13;;
10537;SDS011;5317;49.048;8.468;2023-04-19T09:22:30;6.90;;;6.20;;
10537;SDS011;5317;49.048;8.468;2023-04-19T09:24:58;7.70;;;6.97;;
10537;SDS011;5317;49.048;8.468;2023-04-19T09:27:26;7.40;;;6.70;;
10537;SDS011;5317;49.048;8.468;2023-04-19T09:29:54;8.10;;;7.30;;
10537;SDS011;5317;49.048;8.468;2023-04-19T09:32:22;8.33;;;6.70;;
10537;SDS011;5317;49.048;8.468;2023-04-19T09:34:49;7.07;;;6.13;;
10537;SDS011;5317;49.048;8.468;2023-04-19T09:37:18;7.37;;;6.67;;
10537;SDS011;5317;49.048;8.468;2023-04-19T09:39:47;8.43;;;7.03;;
10537;SDS011;5317;49.048;8.468;2023-04-19T09:42:14;7.60;;;6.53;;
10537;SDS011;5317;49.048;8.468;2023-04-19T09:44:41;7.83;;;6.50;;
10537;SDS011;5317;49.048;8.468;2023-04-19T09:47:22;7.00;;;6.17;;
10537;SDS011;5317;49.048;8.468;2023-04-19T09:50:03;8.63;;;6.40;;
10537;SDS011;5317;49.048;8.468;2023-04-19T09:52:31;8.43;;;6.00;;
10537;SDS011;5317;49.048;8.468;2023-04-19T09:55:01;6.27;;;5.67;;
10537;SDS011;5317;49.048;8.468;2023-04-19T09:57:29;7.97;;;6.73;;
10537;SDS011;5317;49.048;8.468;2023-04-19T09:59:57;7.57;;;6.60;;
10537;SDS011;5317;49.048;8.468;2023-04-19T10:02:25;8.70;;;6.10;;
10537;SDS011;5317;49.048;8.468;2023-04-19T10:04:55;6.60;;;5.80;;
10537;SDS011;5317;49.048;8.468;2023-04-19T10:07:24;6.13;;;5.53;;
10537;SDS011;5317;49.048;8.468;2023-04-19T10:09:52;7.10;;;6.17;;
10537;SDS011;5317;49.048;8.468;2023-04-19T10:12:23;7.80;;;6.07;;
10537;SDS011;5317;49.048;8.468;2023-04-19T10:14:51;6.20;;;5.60;;
10537;SDS011;5317;49.048;8.468;2023-04-19T10:17:20;6.70;;;5.83;;
10537;SDS011;5317;49.048;8.468;2023-04-19T10:19:48;7.87;;;7.07;;
10537;SDS011;5317;49.048;8.468;2023-04-19T10:22:17;8.10;;;6.50;;
10537;SDS011;5317;49.048;8.468;2023-04-19T10:27:38;6.90;;;6.20;;
10537;SDS011;5317;49.048;8.468;2023-04-19T10:30:15;6.33;;;5.60;;
10537;SDS011;5317;49.048;8.468;2023-04-19T10:32:43;7.50;;;6.33;;
10537;SDS011;5317;49.048;8.468;2023-04-19T10:35:17;6.33;;;5.50;;
10537;SDS011;5317;49.048;8.468;2023-04-19T10:43:21;6.87;;;6.17;;
10537;SDS011;5317;49.048;8.468;2023-04-19T10:45:49;6.80;;;6.10;;
10537;SDS011;5317;49.048;8.468;2023-04-19T10:48:35;6.47;;;5.87;;
10537;SDS011;5317;49.048;8.468;2023-04-19T10:51:11;8.13;;;6.20;;
10537;SDS011;5317;49.048;8.468;2023-04-19T10:53:49;6.57;;;5.40;;
10537;SDS011;5317;49.048;8.468;2023-04-19T10:56:18;6.53;;;5.63;;
10537;SDS011;5317;49.048;8.468;2023-04-19T11:01:55;6.10;;;5.47;;
10537;SDS011;5317;49.048;8.468;2023-04-19T11:07:25;6.37;;;5.47;;
10537;SDS011;5317;49.048;8.468;2023-04-19T11:09:53;6.20;;;5.60;;
10537;SDS011;5317;49.048;8.468;2023-04-19T11:12:20;6.20;;;5.60;;
10537;SDS011;5317;49.048;8.468;2023-04-19T11:14:49;6.77;;;6.07;;
10537;SDS011;5317;49.048;8.468;2023-04-19T11:17:18;6.93;;;6.33;;
10537;SDS011;5317;49.048;8.468;2023-04-19T11:19:52;6.13;;;5.50;;
10537;SDS011;5317;49.048;8.468;2023-04-19T11:22:23;6.93;;;5.67;;
10537;SDS011;5317;49.048;8.468;2023-04-19T11:24:51;6.90;;;5.90;;
10537;SDS011;5317;49.048;8.468;2023-04-19T11:27:18;6.10;;;5.33;;
10537;SDS011;5317;49.048;8.468;2023-04-19T11:29:46;6.30;;;5.70;;
10537;SDS011;5317;49.048;8.468;2023-04-19T11:32:17;6.07;;;5.47;;
10537;SDS011;5317;49.048;8.468;2023-04-19T11:34:46;5.77;;;5.20;;
10537;SDS011;5317;49.048;8.468;2023-04-19T11:37:13;5.40;;;4.77;;
10537;SDS011;5317;49.048;8.468;2023-04-19T11:39:44;5.70;;;5.00;;
10537;SDS011;5317;49.048;8.468;2023-04-19T11:42:18;6.77;;;5.67;;
10537;SDS011;5317;49.048;8.468;2023-04-19T11:44:50;6.93;;;5.63;;
10537;SDS011;5317;49.048;8.468;2023-04-19T11:47:17;6.47;;;5.87;;
10537;SDS011;5317;49.048;8.468;2023-04-19T11:49:44;6.23;;;5.33;;
10537;SDS011;5317;49.048;8.468;2023-04-19T11:52:13;6.07;;;5.43;;
10537;SDS011;5317;49.048;8.468;2023-04-19T11:54:45;6.73;;;5.90;;
10537;SDS011;5317;49.048;8.468;2023-04-19T11:57:12;6.30;;;5.67;;
10537;SDS011;5317;49.048;8.468;2023-04-19T11:59:41;8.77;;;6.30;;
10537;SDS011;5317;49.048;8.468;2023-04-19T12:02:36;9.03;;;6.60;;
10537;SDS011;5317;49.048;8.468;2023-04-19T12:05:07;6.57;;;5.97;;
10537;SDS011;5317;49.048;8.468;2023-04-19T12:10:29;7.03;;;6.33;;
10537;SDS011;5317;49.048;8.468;2023-04-19T12:12:56;6.93;;;6.13;;
10537;SDS011;5317;49.048;8.468;2023-04-19T12:15:24;6.33;;;5.73;;
10537;SDS011;5317;49.048;8.468;2023-04-19T12:18:06;7.80;;;6.30;;
10537;SDS011;5317;49.048;8.468;2023-04-19T12:20:33;6.83;;;6.13;;
10537;SDS011;5317;49.048;8.468;2023-04-19T12:23:02;6.63;;;6.03;;
10537;SDS011;5317;49.048;8.468;2023-04-19T12:25:31;6.83;;;6.17;;
10537;SDS011;5317;49.048;8.468;2023-04-19T12:27:59;6.73;;;5.77;;
10537;SDS011;5317;49.048;8.468;2023-04-19T12:30:29;7.20;;;6.27;;
10537;SDS011;5317;49.048;8.468;2023-04-19T12:32:57;6.37;;;5.77;;
10537;SDS011;5317;49.048;8.468;2023-04-19T12:35:24;6.60;;;5.90;;
10537;SDS011;5317;49.048;8.468;2023-04-19T12:37:52;7.90;;;7.10;;
10537;SDS011;5317;49.048;8.468;2023-04-19T12:40:22;7.87;;;6.87;;
10537;SDS011;5317;49.048;8.468;2023-04-19T12:42:49;8.13;;;6.93;;
10537;SDS011;5317;49.048;8.468;2023-04-19T12:45:16;8.23;;;6.73;;
10537;SDS011;5317;49.048;8.468;2023-04-19T12:47:46;8.67;;;6.43;;
10537;SDS011;5317;49.048;8.468;2023-04-19T12:50:14;7.10;;;6.40;;
10537;SDS011;5317;49.048;8.468;2023-04-19T12:52:42;7.93;;;7.23;;
10537;SDS011;5317;49.048;8.468;2023-04-19T12:55:10;8.77;;;6.83;;
10537;SDS011;5317;49.048;8.468;2023-04-19T12:57:37;8.60;;;7.70;;
10537;SDS011;5317;49.048;8.468;2023-04-19T13:00:06;8.33;;;7.40;;
10537;SDS011;5317;49.048;8.468;2023-04-19T13:02:34;8.80;;;7.40;;
10537;SDS011;5317;49.048;8.468;2023-04-19T13:05:04;8.50;;;6.90;;
10537;SDS011;5317;49.048;8.468;2023-04-19T13:07:31;8.87;;;7.87;;
10537;SDS011;5317;49.048;8.468;2023-04-19T13:09:58;7.87;;;6.67;;
10537;SDS011;5317;49.048;8.468;2023-04-19T13:12:25;9.37;;;8.10;;
10537;SDS011;5317;49.048;8.468;2023-04-19T13:14:53;8.37;;;7.37;;
10537;SDS011;5317;49.048;8.468;2023-04-19T13:17:20;8.63;;;7.50;;
10537;SDS011;5317;49.048;8.468;2023-04-19T13:19:48;11.00;;;8.13;;
10537;SDS011;5317;49.048;8.468;2023-04-19T13:22:18;9.60;;;8.23;;
10537;SDS011;5317;49.048;8.468;2023-04-19T13:24:45;9.63;;;8.23;;
10537;SDS011;5317;49.048;8.468;2023-04-19T13:27:12;9.40;;;8.40;;
10537;SDS011;5317;49.048;8.468;2023-04-19T13:29:39;8.80;;;7.90;;
10537;SDS011;5317;49.048;8.468;2023-04-19T13:32:06;8.70;;;7.87;;
10537;SDS011;5317;49.048;8.468;2023-04-19T13:34:36;9.40;;;8.40;;
10537;SDS011;5317;49.048;8.468;2023-04-19T13:37:03;10.17;;;9.07;;
10537;SDS011;5317;49.048;8.468;2023-04-19T13:39:32;12.00;;;9.40;;
10537;SDS011;5317;49.048;8.468;2023-04-19T13:41:59;10.33;;;9.27;;
10537;SDS011;5317;49.048;8.468;2023-04-19T13:44:26;10.27;;;9.17;;
10537;SDS011;5317;49.048;8.468;2023-04-19T13:46:53;10.90;;;9.63;;
10537;SDS011;5317;49.048;8.468;2023-04-19T13:49:22;11.13;;;9.80;;
10537;SDS011;5317;49.048;8.468;2023-04-19T13:51:49;9.80;;;8.57;;
10537;SDS011;5317;49.048;8.468;2023-04-19T13:54:15;12.10;;;10.50;;
10537;SDS011;5317;49.048;8.468;2023-04-19T13:56:44;10.53;;;9.40;;
10537;SDS011;5317;49.048;8.468;2023-04-19T13:59:11;12.50;;;9.60;;
10537;SDS011;5317;49.048;8.468;2023-04-19T14:01:38;10.27;;;9.17;;
10537;SDS011;5317;49.048;8.468;2023-04-19T14:04:07;12.00;;;9.57;;
10537;SDS011;5317;49.048;8.468;2023-04-19T14:06:33;10.40;;;9.23;;
10537;SDS011;5317;49.048;8.468;2023-04-19T14:09:02;10.30;;;7.83;;
10537;SDS011;5317;49.048;8.468;2023-04-19T14:11:29;8.73;;;7.63;;
10537;SDS011;5317;49.048;8.468;2023-04-19T14:13:57;9.23;;;7.30;;
10537;SDS011;5317;49.048;8.468;2023-04-19T14:16:24;7.83;;;7.03;;
10537;SDS011;5317;49.048;8.468;2023-04-19T14:18:51;9.47;;;7.53;;
10537;SDS011;5317;49.048;8.468;2023-04-19T14:21:18;9.70;;;7.80;;
10537;SDS011;5317;49.048;8.468;2023-04-19T14:23:45;10.80;;;8.20;;
10537;SDS011;5317;49.048;8.468;2023-04-19T14:26:12;10.53;;;7.77;;
10537;SDS011;5317;49.048;8.468;2023-04-19T14:28:39;9.07;;;8.17;;
10537;SDS011;5317;49.048;8.468;2023-04-19T14:31:09;9.00;;;8.10;;
10537;SDS011;5317;49.048;8.468;2023-04-19T14:33:36;8.77;;;7.87;;
10537;SDS011;5317;49.048;8.468;2023-04-19T14:36:03;9.47;;;8.47;;
10537;SDS011;5317;49.048;8.468;2023-04-19T14:38:30;8.90;;;7.07;;
10537;SDS011;5317;49.048;8.468;2023-04-19T14:40:57;8.57;;;7.37;;
10537;SDS011;5317;49.048;8.468;2023-04-19T14:43:24;9.20;;;7.60;;
10537;SDS011;5317;49.048;8.468;2023-04-19T14:45:51;8.77;;;7.87;;
10537;SDS011;5317;49.048;8.468;2023-04-19T14:48:20;9.10;;;7.73;;
10537;SDS011;5317;49.048;8.468;2023-04-19T14:50:49;9.07;;;6.73;;
10537;SDS011;5317;49.048;8.468;2023-04-19T14:53:16;8.50;;;7.17;;
10537;SDS011;5317;49.048;8.468;2023-04-19T14:55:43;8.00;;;7.30;;
10537;SDS011;5317;49.048;8.468;2023-04-19T14:58:10;8.27;;;7.40;;
10537;SDS011;5317;49.048;8.468;2023-04-19T15:00:37;8.53;;;7.37;;
10537;SDS011;5317;49.048;8.468;2023-04-19T15:03:05;7.90;;;6.90;;
10537;SDS011;5317;49.048;8.468;2023-04-19T15:05:34;9.00;;;7.70;;
10537;SDS011;5317;49.048;8.468;2023-04-19T15:08:01;8.27;;;7.07;;
10537;SDS011;5317;49.048;8.468;2023-04-19T15:10:28;9.30;;;6.90;;
10537;SDS011;5317;49.048;8.468;2023-04-19T15:12:55;7.40;;;6.70;;
10537;SDS011;5317;49.048;8.468;2023-04-19T15:15:22;9.83;;;7.60;;
10537;SDS011;5317;49.048;8.468;2023-04-19T15:17:49;7.10;;;6.40;;
10537;SDS011;5317;49.048;8.468;2023-04-19T15:20:16;8.47;;;7.40;;